sensor_id;sensor_type;location;lat;lon;timestamp;P1;durP1;ratioP1;P2;durP2;ratioP2
76475;SDS011;65308;50.078;14.854;2023-02-15T00:01:27;28.63;;;13.77;;
76475;SDS011;65308;50.078;14.854;2023-02-15T00:03:54;27.52;;;14.75;;
76475;SDS011;65308;50.078;14.854;2023-02-15T00:06:21;32.67;;;15.93;;
76475;SDS011;65308;50.078;14.854;2023-02-15T00:08:48;29.77;;;16.10;;
76475;SDS011;65308;50.078;14.854;2023-02-15T00:11:15;30.48;;;15.55;;
76475;SDS011;65308;50.078;14.854;2023-02-15T00:14:05;27.70;;;14.65;;
76475;SDS011;65308;50.078;14.854;2023-02-15T00:16:32;29.35;;;15.27;;
76475;SDS011;65308;50.078;14.854;2023-02-15T00:18:59;25.75;;;14.00;;
76475;SDS011;65308;50.078;14.854;2023-02-15T00:21:27;26.25;;;14.65;;
76475;SDS011;65308;50.078;14.854;2023-02-15T00:23:54;26.17;;;13.73;;
76475;SDS011;65308;50.078;14.854;2023-02-15T00:26:21;25.98;;;14.52;;
76475;SDS011;65308;50.078;14.854;2023-02-15T00:28:48;26.55;;;13.57;;
76475;SDS011;65308;50.078;14.854;2023-02-15T00:31:16;27.90;;;15.52;;
76475;SDS011;65308;50.078;14.854;2023-02-15T00:33:43;25.38;;;13.52;;
76475;SDS011;65308;50.078;14.854;2023-02-15T00:36:11;27.38;;;14.18;;
76475;SDS011;65308;50.078;14.854;2023-02-15T00:38:38;30.90;;;15.43;;
76475;SDS011;65308;50.078;14.854;2023-02-15T00:41:06;26.40;;;14.43;;
76475;SDS011;65308;50.078;14.854;2023-02-15T00:43:34;27.42;;;14.52;;
76475;SDS011;65308;50.078;14.854;2023-02-15T00:46:01;27.67;;;15.90;;
76475;SDS011;65308;50.078;14.854;2023-02-15T00:48:30;26.00;;;14.32;;
76475;SDS011;65308;50.078;14.854;2023-02-15T00:50:58;29.30;;;15.25;;
76475;SDS011;65308;50.078;14.854;2023-02-15T00:53:26;28.83;;;13.70;;
76475;SDS011;65308;50.078;14.854;2023-02-15T00:55:53;29.35;;;16.35;;
76475;SDS011;65308;50.078;14.854;2023-02-15T00:58:20;27.33;;;13.93;;
76475;SDS011;65308;50.078;14.854;2023-02-15T01:00:47;28.50;;;14.55;;
76475;SDS011;65308;50.078;14.854;2023-02-15T01:03:14;28.20;;;15.27;;
76475;SDS011;65308;50.078;14.854;2023-02-15T01:05:43;32.17;;;16.17;;
76475;SDS011;65308;50.078;14.854;2023-02-15T01:08:10;27.92;;;14.77;;
76475;SDS011;65308;50.078;14.854;2023-02-15T01:10:37;29.48;;;15.15;;
76475;SDS011;65308;50.078;14.854;2023-02-15T01:13:04;28.23;;;14.95;;
76475;SDS011;65308;50.078;14.854;2023-02-15T01:15:31;31.45;;;15.73;;
76475;SDS011;65308;50.078;14.854;2023-02-15T01:18:00;27.75;;;14.80;;
76475;SDS011;65308;50.078;14.854;2023-02-15T01:20:28;31.02;;;15.90;;
76475;SDS011;65308;50.078;14.854;2023-02-15T01:22:57;29.10;;;15.63;;
76475;SDS011;65308;50.078;14.854;2023-02-15T01:25:24;29.27;;;15.20;;
76475;SDS011;65308;50.078;14.854;2023-02-15T01:27:51;32.35;;;15.88;;
76475;SDS011;65308;50.078;14.854;2023-02-15T01:30:18;30.92;;;14.77;;
76475;SDS011;65308;50.078;14.854;2023-02-15T01:32:44;32.35;;;16.38;;
76475;SDS011;65308;50.078;14.854;2023-02-15T01:35:11;30.33;;;15.63;;
76475;SDS011;65308;50.078;14.854;2023-02-15T01:37:38;32.22;;;16.75;;
76475;SDS011;65308;50.078;14.854;2023-02-15T01:40:07;32.30;;;16.52;;
76475;SDS011;65308;50.078;14.854;2023-02-15T01:42:37;34.47;;;15.55;;
76475;SDS011;65308;50.078;14.854;2023-02-15T01:45:05;31.38;;;15.68;;
76475;SDS011;65308;50.078;14.854;2023-02-15T01:47:45;32.10;;;15.65;;
76475;SDS011;65308;50.078;14.854;2023-02-15T01:50:15;33.92;;;16.25;;
76475;SDS011;65308;50.078;14.854;2023-02-15T01:52:46;32.88;;;16.48;;
76475;SDS011;65308;50.078;14.854;2023-02-15T01:55:19;31.05;;;16.25;;
76475;SDS011;65308;50.078;14.854;2023-02-15T01:57:47;33.97;;;16.33;;
76475;SDS011;65308;50.078;14.854;2023-02-15T02:02:43;32.17;;;16.45;;
76475;SDS011;65308;50.078;14.854;2023-02-15T02:05:13;33.05;;;15.85;;
76475;SDS011;65308;50.078;14.854;2023-02-15T02:07:40;30.92;;;15.90;;
76475;SDS011;65308;50.078;14.854;2023-02-15T02:10:10;34.67;;;16.95;;
76475;SDS011;65308;50.078;14.854;2023-02-15T02:12:40;34.45;;;16.25;;
76475;SDS011;65308;50.078;14.854;2023-02-15T02:15:10;32.30;;;16.88;;
76475;SDS011;65308;50.078;14.854;2023-02-15T02:17:40;36.42;;;17.58;;
76475;SDS011;65308;50.078;14.854;2023-02-15T02:20:17;34.55;;;18.05;;
76475;SDS011;65308;50.078;14.854;2023-02-15T02:23:02;37.75;;;19.40;;
76475;SDS011;65308;50.078;14.854;2023-02-15T02:25:50;35.75;;;16.77;;
76475;SDS011;65308;50.078;14.854;2023-02-15T02:31:46;32.13;;;16.67;;
76475;SDS011;65308;50.078;14.854;2023-02-15T02:34:29;31.25;;;15.30;;
76475;SDS011;65308;50.078;14.854;2023-02-15T02:36:59;36.33;;;16.85;;
76475;SDS011;65308;50.078;14.854;2023-02-15T02:39:37;34.35;;;15.80;;
76475;SDS011;65308;50.078;14.854;2023-02-15T02:42:11;31.80;;;15.35;;
76475;SDS011;65308;50.078;14.854;2023-02-15T02:44:44;32.03;;;15.70;;
76475;SDS011;65308;50.078;14.854;2023-02-15T02:47:16;32.78;;;15.70;;
76475;SDS011;65308;50.078;14.854;2023-02-15T02:52:37;33.33;;;16.02;;
76475;SDS011;65308;50.078;14.854;2023-02-15T02:55:07;33.50;;;16.13;;
76475;SDS011;65308;50.078;14.854;2023-02-15T02:57:39;31.13;;;14.38;;
76475;SDS011;65308;50.078;14.854;2023-02-15T03:02:39;35.58;;;18.08;;
76475;SDS011;65308;50.078;14.854;2023-02-15T03:05:11;33.45;;;16.38;;
76475;SDS011;65308;50.078;14.854;2023-02-15T03:07:42;31.23;;;15.93;;
76475;SDS011;65308;50.078;14.854;2023-02-15T03:12:43;30.63;;;15.68;;
76475;SDS011;65308;50.078;14.854;2023-02-15T03:15:12;34.05;;;15.82;;
76475;SDS011;65308;50.078;14.854;2023-02-15T03:17:43;42.63;;;18.05;;
76475;SDS011;65308;50.078;14.854;2023-02-15T03:20:14;37.70;;;16.40;;
76475;SDS011;65308;50.078;14.854;2023-02-15T03:22:45;30.42;;;15.15;;
76475;SDS011;65308;50.078;14.854;2023-02-15T03:25:17;33.80;;;16.35;;
76475;SDS011;65308;50.078;14.854;2023-02-15T03:27:49;32.15;;;15.02;;
76475;SDS011;65308;50.078;14.854;2023-02-15T03:30:19;33.45;;;16.17;;
76475;SDS011;65308;50.078;14.854;2023-02-15T03:32:49;34.28;;;17.02;;
76475;SDS011;65308;50.078;14.854;2023-02-15T03:35:18;34.33;;;16.08;;
76475;SDS011;65308;50.078;14.854;2023-02-15T03:37:47;33.20;;;16.20;;
76475;SDS011;65308;50.078;14.854;2023-02-15T03:40:18;36.33;;;17.95;;
76475;SDS011;65308;50.078;14.854;2023-02-15T03:43:07;35.38;;;16.67;;
76475;SDS011;65308;50.078;14.854;2023-02-15T03:48:19;36.20;;;16.85;;
76475;SDS011;65308;50.078;14.854;2023-02-15T03:50:50;32.58;;;16.35;;
76475;SDS011;65308;50.078;14.854;2023-02-15T03:53:36;35.80;;;16.50;;
76475;SDS011;65308;50.078;14.854;2023-02-15T03:56:04;37.00;;;16.85;;
76475;SDS011;65308;50.078;14.854;2023-02-15T03:58:30;31.33;;;16.27;;
76475;SDS011;65308;50.078;14.854;2023-02-15T04:01:17;35.80;;;16.23;;
76475;SDS011;65308;50.078;14.854;2023-02-15T04:04:09;34.33;;;16.52;;
76475;SDS011;65308;50.078;14.854;2023-02-15T04:06:41;35.67;;;17.45;;
76475;SDS011;65308;50.078;14.854;2023-02-15T04:09:07;34.47;;;16.17;;
76475;SDS011;65308;50.078;14.854;2023-02-15T04:11:52;36.78;;;16.77;;
76475;SDS011;65308;50.078;14.854;2023-02-15T04:14:18;33.83;;;15.93;;
76475;SDS011;65308;50.078;14.854;2023-02-15T04:17:05;33.78;;;15.95;;
76475;SDS011;65308;50.078;14.854;2023-02-15T04:19:31;33.63;;;16.13;;
76475;SDS011;65308;50.078;14.854;2023-02-15T04:22:17;37.85;;;17.27;;
76475;SDS011;65308;50.078;14.854;2023-02-15T04:25:01;34.65;;;15.60;;
76475;SDS011;65308;50.078;14.854;2023-02-15T04:27:37;32.53;;;15.38;;
76475;SDS011;65308;50.078;14.854;2023-02-15T04:30:05;35.75;;;17.65;;
76475;SDS011;65308;50.078;14.854;2023-02-15T04:32:32;34.90;;;16.70;;
76475;SDS011;65308;50.078;14.854;2023-02-15T04:34:59;36.67;;;17.30;;
76475;SDS011;65308;50.078;14.854;2023-02-15T04:37:27;32.88;;;16.55;;
76475;SDS011;65308;50.078;14.854;2023-02-15T04:39:54;34.03;;;16.40;;
76475;SDS011;65308;50.078;14.854;2023-02-15T04:42:23;29.30;;;14.98;;
76475;SDS011;65308;50.078;14.854;2023-02-15T04:44:50;33.28;;;15.93;;
76475;SDS011;65308;50.078;14.854;2023-02-15T04:47:17;31.85;;;15.73;;
76475;SDS011;65308;50.078;14.854;2023-02-15T04:49:44;33.92;;;14.82;;
76475;SDS011;65308;50.078;14.854;2023-02-15T04:52:10;34.08;;;15.70;;
76475;SDS011;65308;50.078;14.854;2023-02-15T04:54:39;32.30;;;14.63;;
76475;SDS011;65308;50.078;14.854;2023-02-15T04:57:06;31.98;;;15.82;;
76475;SDS011;65308;50.078;14.854;2023-02-15T04:59:32;34.25;;;16.08;;
76475;SDS011;65308;50.078;14.854;2023-02-15T05:01:59;34.58;;;15.88;;
76475;SDS011;65308;50.078;14.854;2023-02-15T05:04:26;34.28;;;16.55;;
76475;SDS011;65308;50.078;14.854;2023-02-15T05:06:52;34.50;;;16.50;;
76475;SDS011;65308;50.078;14.854;2023-02-15T05:09:19;32.20;;;16.10;;
76475;SDS011;65308;50.078;14.854;2023-02-15T05:11:47;35.28;;;16.60;;
76475;SDS011;65308;50.078;14.854;2023-02-15T05:14:14;33.00;;;15.95;;
76475;SDS011;65308;50.078;14.854;2023-02-15T05:16:45;33.60;;;16.38;;
76475;SDS011;65308;50.078;14.854;2023-02-15T05:19:15;37.83;;;16.70;;
76475;SDS011;65308;50.078;14.854;2023-02-15T05:21:49;35.03;;;16.70;;
76475;SDS011;65308;50.078;14.854;2023-02-15T05:24:16;36.75;;;17.58;;
76475;SDS011;65308;50.078;14.854;2023-02-15T05:27:11;35.65;;;17.17;;
76475;SDS011;65308;50.078;14.854;2023-02-15T05:29:56;35.17;;;16.85;;
76475;SDS011;65308;50.078;14.854;2023-02-15T05:32:22;34.28;;;16.63;;
76475;SDS011;65308;50.078;14.854;2023-02-15T05:34:59;37.28;;;17.90;;
76475;SDS011;65308;50.078;14.854;2023-02-15T05:37:58;35.72;;;16.45;;
76475;SDS011;65308;50.078;14.854;2023-02-15T05:40:24;33.10;;;16.48;;
76475;SDS011;65308;50.078;14.854;2023-02-15T05:42:52;32.85;;;16.50;;
76475;SDS011;65308;50.078;14.854;2023-02-15T05:45:19;36.03;;;17.55;;
76475;SDS011;65308;50.078;14.854;2023-02-15T05:47:46;34.33;;;16.25;;
76475;SDS011;65308;50.078;14.854;2023-02-15T05:50:12;38.75;;;18.20;;
76475;SDS011;65308;50.078;14.854;2023-02-15T05:52:39;37.15;;;17.15;;
76475;SDS011;65308;50.078;14.854;2023-02-15T05:55:06;38.47;;;18.00;;
76475;SDS011;65308;50.078;14.854;2023-02-15T05:57:34;36.50;;;17.50;;
76475;SDS011;65308;50.078;14.854;2023-02-15T06:00:03;38.35;;;17.77;;
76475;SDS011;65308;50.078;14.854;2023-02-15T06:02:32;34.95;;;16.88;;
76475;SDS011;65308;50.078;14.854;2023-02-15T06:05:00;37.53;;;17.55;;
76475;SDS011;65308;50.078;14.854;2023-02-15T06:07:26;37.55;;;17.40;;
76475;SDS011;65308;50.078;14.854;2023-02-15T06:09:53;37.05;;;16.45;;
76475;SDS011;65308;50.078;14.854;2023-02-15T06:12:19;36.08;;;16.42;;
76475;SDS011;65308;50.078;14.854;2023-02-15T06:14:46;38.55;;;17.13;;
76475;SDS011;65308;50.078;14.854;2023-02-15T06:17:14;33.80;;;15.88;;
76475;SDS011;65308;50.078;14.854;2023-02-15T06:19:42;36.05;;;16.67;;
76475;SDS011;65308;50.078;14.854;2023-02-15T06:22:09;32.88;;;15.70;;
76475;SDS011;65308;50.078;14.854;2023-02-15T06:24:35;37.25;;;16.80;;
76475;SDS011;65308;50.078;14.854;2023-02-15T06:27:02;35.92;;;17.10;;
76475;SDS011;65308;50.078;14.854;2023-02-15T06:29:29;33.72;;;16.50;;
76475;SDS011;65308;50.078;14.854;2023-02-15T06:32:04;38.33;;;17.13;;
76475;SDS011;65308;50.078;14.854;2023-02-15T06:34:33;34.42;;;15.80;;
76475;SDS011;65308;50.078;14.854;2023-02-15T06:37:00;35.83;;;16.45;;
76475;SDS011;65308;50.078;14.854;2023-02-15T06:39:26;38.05;;;17.42;;
76475;SDS011;65308;50.078;14.854;2023-02-15T06:41:53;38.03;;;17.52;;
76475;SDS011;65308;50.078;14.854;2023-02-15T06:44:19;39.70;;;17.98;;
76475;SDS011;65308;50.078;14.854;2023-02-15T06:46:46;32.22;;;16.23;;
76475;SDS011;65308;50.078;14.854;2023-02-15T06:49:13;34.63;;;16.85;;
76475;SDS011;65308;50.078;14.854;2023-02-15T06:51:41;41.83;;;17.52;;
76475;SDS011;65308;50.078;14.854;2023-02-15T06:54:09;35.22;;;16.50;;
76475;SDS011;65308;50.078;14.854;2023-02-15T06:56:39;40.28;;;17.98;;
76475;SDS011;65308;50.078;14.854;2023-02-15T06:59:06;41.10;;;18.25;;
76475;SDS011;65308;50.078;14.854;2023-02-15T07:01:32;38.85;;;17.58;;
76475;SDS011;65308;50.078;14.854;2023-02-15T07:03:59;38.63;;;17.38;;
76475;SDS011;65308;50.078;14.854;2023-02-15T07:06:35;41.13;;;18.67;;
76475;SDS011;65308;50.078;14.854;2023-02-15T07:09:03;44.85;;;19.75;;
76475;SDS011;65308;50.078;14.854;2023-02-15T07:11:30;42.53;;;18.98;;
76475;SDS011;65308;50.078;14.854;2023-02-15T07:14:14;42.78;;;18.38;;
76475;SDS011;65308;50.078;14.854;2023-02-15T07:16:41;39.08;;;16.55;;
76475;SDS011;65308;50.078;14.854;2023-02-15T07:19:07;37.47;;;16.08;;
76475;SDS011;65308;50.078;14.854;2023-02-15T07:21:34;39.53;;;17.58;;
76475;SDS011;65308;50.078;14.854;2023-02-15T07:24:01;40.75;;;17.80;;
76475;SDS011;65308;50.078;14.854;2023-02-15T07:26:30;37.88;;;15.70;;
76475;SDS011;65308;50.078;14.854;2023-02-15T07:28:57;40.78;;;17.42;;
76475;SDS011;65308;50.078;14.854;2023-02-15T07:31:24;38.17;;;18.23;;
76475;SDS011;65308;50.078;14.854;2023-02-15T07:33:50;46.28;;;20.85;;
76475;SDS011;65308;50.078;14.854;2023-02-15T07:36:17;41.83;;;19.13;;
76475;SDS011;65308;50.078;14.854;2023-02-15T07:38:43;43.45;;;18.55;;
76475;SDS011;65308;50.078;14.854;2023-02-15T07:41:12;41.53;;;17.98;;
76475;SDS011;65308;50.078;14.854;2023-02-15T07:43:41;41.55;;;18.42;;
76475;SDS011;65308;50.078;14.854;2023-02-15T07:46:09;39.10;;;17.20;;
76475;SDS011;65308;50.078;14.854;2023-02-15T07:48:38;45.88;;;20.48;;
76475;SDS011;65308;50.078;14.854;2023-02-15T07:51:05;39.38;;;17.42;;
76475;SDS011;65308;50.078;14.854;2023-02-15T07:53:34;41.03;;;18.25;;
76475;SDS011;65308;50.078;14.854;2023-02-15T07:56:03;47.50;;;21.70;;
76475;SDS011;65308;50.078;14.854;2023-02-15T07:58:32;48.95;;;20.63;;
76475;SDS011;65308;50.078;14.854;2023-02-15T08:01:18;44.00;;;19.33;;
76475;SDS011;65308;50.078;14.854;2023-02-15T08:03:46;38.90;;;16.83;;
76475;SDS011;65308;50.078;14.854;2023-02-15T08:06:13;35.42;;;15.70;;
76475;SDS011;65308;50.078;14.854;2023-02-15T08:08:40;41.63;;;17.05;;
76475;SDS011;65308;50.078;14.854;2023-02-15T08:11:17;39.92;;;17.08;;
76475;SDS011;65308;50.078;14.854;2023-02-15T08:14:04;41.80;;;17.80;;
76475;SDS011;65308;50.078;14.854;2023-02-15T08:16:33;44.47;;;19.77;;
76475;SDS011;65308;50.078;14.854;2023-02-15T08:19:02;38.00;;;16.02;;
76475;SDS011;65308;50.078;14.854;2023-02-15T08:21:31;45.47;;;19.23;;
76475;SDS011;65308;50.078;14.854;2023-02-15T08:23:58;75.47;;;24.98;;
76475;SDS011;65308;50.078;14.854;2023-02-15T08:26:26;42.05;;;16.88;;
76475;SDS011;65308;50.078;14.854;2023-02-15T08:28:54;40.25;;;15.60;;
76475;SDS011;65308;50.078;14.854;2023-02-15T08:31:23;43.22;;;17.38;;
76475;SDS011;65308;50.078;14.854;2023-02-15T08:33:50;42.75;;;17.90;;
76475;SDS011;65308;50.078;14.854;2023-02-15T08:36:19;42.50;;;16.88;;
76475;SDS011;65308;50.078;14.854;2023-02-15T08:38:47;37.10;;;16.25;;
76475;SDS011;65308;50.078;14.854;2023-02-15T08:41:14;37.75;;;15.55;;
76475;SDS011;65308;50.078;14.854;2023-02-15T08:43:43;42.40;;;17.67;;
76475;SDS011;65308;50.078;14.854;2023-02-15T08:46:11;35.35;;;15.00;;
76475;SDS011;65308;50.078;14.854;2023-02-15T08:48:40;39.05;;;16.92;;
76475;SDS011;65308;50.078;14.854;2023-02-15T08:51:08;39.92;;;17.00;;
76475;SDS011;65308;50.078;14.854;2023-02-15T08:53:37;37.80;;;17.02;;
76475;SDS011;65308;50.078;14.854;2023-02-15T08:56:04;42.88;;;18.88;;
76475;SDS011;65308;50.078;14.854;2023-02-15T08:58:31;38.28;;;16.70;;
76475;SDS011;65308;50.078;14.854;2023-02-15T09:00:58;39.95;;;17.10;;
76475;SDS011;65308;50.078;14.854;2023-02-15T09:03:27;39.22;;;17.10;;
76475;SDS011;65308;50.078;14.854;2023-02-15T09:05:57;40.63;;;18.25;;
76475;SDS011;65308;50.078;14.854;2023-02-15T09:08:25;39.58;;;17.13;;
76475;SDS011;65308;50.078;14.854;2023-02-15T09:10:52;40.67;;;17.63;;
76475;SDS011;65308;50.078;14.854;2023-02-15T09:13:19;39.83;;;16.30;;
76475;SDS011;65308;50.078;14.854;2023-02-15T09:15:46;39.55;;;16.50;;
76475;SDS011;65308;50.078;14.854;2023-02-15T09:18:13;42.53;;;17.50;;
76475;SDS011;65308;50.078;14.854;2023-02-15T09:20:42;44.35;;;17.25;;
76475;SDS011;65308;50.078;14.854;2023-02-15T09:23:10;41.30;;;16.88;;
76475;SDS011;65308;50.078;14.854;2023-02-15T09:25:37;44.90;;;17.02;;
76475;SDS011;65308;50.078;14.854;2023-02-15T09:28:04;39.42;;;16.42;;
76475;SDS011;65308;50.078;14.854;2023-02-15T09:30:30;41.05;;;17.10;;
76475;SDS011;65308;50.078;14.854;2023-02-15T09:32:57;43.05;;;17.27;;
76475;SDS011;65308;50.078;14.854;2023-02-15T09:35:24;41.42;;;16.67;;
76475;SDS011;65308;50.078;14.854;2023-02-15T09:37:50;42.70;;;17.15;;
76475;SDS011;65308;50.078;14.854;2023-02-15T09:40:18;44.00;;;17.42;;
76475;SDS011;65308;50.078;14.854;2023-02-15T09:45:49;39.22;;;16.10;;
76475;SDS011;65308;50.078;14.854;2023-02-15T09:48:31;43.58;;;17.75;;
76475;SDS011;65308;50.078;14.854;2023-02-15T09:51:13;38.85;;;17.92;;
76475;SDS011;65308;50.078;14.854;2023-02-15T09:53:58;37.50;;;16.17;;
76475;SDS011;65308;50.078;14.854;2023-02-15T09:56:47;32.40;;;15.13;;
76475;SDS011;65308;50.078;14.854;2023-02-15T09:59:18;43.05;;;17.77;;
76475;SDS011;65308;50.078;14.854;2023-02-15T10:01:52;42.97;;;18.25;;
76475;SDS011;65308;50.078;14.854;2023-02-15T10:04:35;40.42;;;16.55;;
76475;SDS011;65308;50.078;14.854;2023-02-15T10:07:14;42.22;;;17.48;;
76475;SDS011;65308;50.078;14.854;2023-02-15T10:09:56;42.92;;;17.30;;
76475;SDS011;65308;50.078;14.854;2023-02-15T10:12:36;38.25;;;16.25;;
76475;SDS011;65308;50.078;14.854;2023-02-15T10:15:18;42.45;;;17.00;;
76475;SDS011;65308;50.078;14.854;2023-02-15T10:18:04;36.88;;;15.77;;
76475;SDS011;65308;50.078;14.854;2023-02-15T10:20:39;35.33;;;15.73;;
76475;SDS011;65308;50.078;14.854;2023-02-15T10:26:11;37.17;;;15.77;;
76475;SDS011;65308;50.078;14.854;2023-02-15T10:28:45;41.28;;;15.93;;
76475;SDS011;65308;50.078;14.854;2023-02-15T10:31:17;37.70;;;16.30;;
76475;SDS011;65308;50.078;14.854;2023-02-15T10:33:51;35.92;;;15.68;;
76475;SDS011;65308;50.078;14.854;2023-02-15T10:36:28;37.78;;;15.57;;
76475;SDS011;65308;50.078;14.854;2023-02-15T10:39:12;38.17;;;15.73;;
76475;SDS011;65308;50.078;14.854;2023-02-15T10:41:50;38.60;;;16.17;;
76475;SDS011;65308;50.078;14.854;2023-02-15T10:44:30;38.05;;;16.25;;
76475;SDS011;65308;50.078;14.854;2023-02-15T10:47:12;37.53;;;15.25;;
76475;SDS011;65308;50.078;14.854;2023-02-15T10:50:01;37.53;;;16.08;;
76475;SDS011;65308;50.078;14.854;2023-02-15T10:52:39;33.50;;;15.25;;
76475;SDS011;65308;50.078;14.854;2023-02-15T10:55:20;35.70;;;15.35;;
76475;SDS011;65308;50.078;14.854;2023-02-15T10:57:56;37.42;;;16.83;;
76475;SDS011;65308;50.078;14.854;2023-02-15T11:00:31;40.88;;;16.90;;
76475;SDS011;65308;50.078;14.854;2023-02-15T11:03:08;46.22;;;18.88;;
76475;SDS011;65308;50.078;14.854;2023-02-15T11:05:52;35.33;;;16.67;;
76475;SDS011;65308;50.078;14.854;2023-02-15T11:08:28;39.53;;;16.95;;
76475;SDS011;65308;50.078;14.854;2023-02-15T11:10:58;45.97;;;19.95;;
76475;SDS011;65308;50.078;14.854;2023-02-15T11:13:29;36.58;;;17.33;;
76475;SDS011;65308;50.078;14.854;2023-02-15T11:16:02;37.50;;;16.70;;
76475;SDS011;65308;50.078;14.854;2023-02-15T11:18:32;33.08;;;14.30;;
76475;SDS011;65308;50.078;14.854;2023-02-15T11:21:03;33.63;;;15.00;;
76475;SDS011;65308;50.078;14.854;2023-02-15T11:23:33;33.30;;;15.95;;
76475;SDS011;65308;50.078;14.854;2023-02-15T11:26:03;34.17;;;15.85;;
76475;SDS011;65308;50.078;14.854;2023-02-15T11:28:33;34.38;;;15.70;;
76475;SDS011;65308;50.078;14.854;2023-02-15T11:31:12;37.35;;;16.83;;
76475;SDS011;65308;50.078;14.854;2023-02-15T11:33:43;35.00;;;16.77;;
76475;SDS011;65308;50.078;14.854;2023-02-15T11:36:15;36.55;;;16.83;;
76475;SDS011;65308;50.078;14.854;2023-02-15T11:38:44;37.17;;;16.95;;
76475;SDS011;65308;50.078;14.854;2023-02-15T11:41:14;39.65;;;17.88;;
76475;SDS011;65308;50.078;14.854;2023-02-15T11:43:47;37.80;;;18.00;;
76475;SDS011;65308;50.078;14.854;2023-02-15T11:46:21;39.60;;;16.77;;
76475;SDS011;65308;50.078;14.854;2023-02-15T11:48:48;39.63;;;17.05;;
76475;SDS011;65308;50.078;14.854;2023-02-15T11:51:16;37.05;;;16.63;;
76475;SDS011;65308;50.078;14.854;2023-02-15T11:53:45;38.92;;;17.23;;
76475;SDS011;65308;50.078;14.854;2023-02-15T11:56:13;37.42;;;16.90;;
76475;SDS011;65308;50.078;14.854;2023-02-15T11:58:42;37.97;;;16.67;;
76475;SDS011;65308;50.078;14.854;2023-02-15T12:01:13;40.47;;;18.02;;
76475;SDS011;65308;50.078;14.854;2023-02-15T12:03:46;39.35;;;17.90;;
76475;SDS011;65308;50.078;14.854;2023-02-15T12:06:23;36.97;;;17.35;;
76475;SDS011;65308;50.078;14.854;2023-02-15T12:08:54;38.00;;;17.73;;
76475;SDS011;65308;50.078;14.854;2023-02-15T12:11:26;37.53;;;16.45;;
76475;SDS011;65308;50.078;14.854;2023-02-15T12:13:59;37.95;;;16.63;;
76475;SDS011;65308;50.078;14.854;2023-02-15T12:16:27;36.65;;;16.60;;
76475;SDS011;65308;50.078;14.854;2023-02-15T12:18:59;31.65;;;15.60;;
76475;SDS011;65308;50.078;14.854;2023-02-15T12:21:28;37.47;;;16.90;;
76475;SDS011;65308;50.078;14.854;2023-02-15T12:23:58;37.50;;;16.50;;
76475;SDS011;65308;50.078;14.854;2023-02-15T12:26:30;37.85;;;16.60;;
76475;SDS011;65308;50.078;14.854;2023-02-15T12:28:58;36.50;;;17.10;;
76475;SDS011;65308;50.078;14.854;2023-02-15T12:31:28;37.72;;;17.80;;
76475;SDS011;65308;50.078;14.854;2023-02-15T12:34:01;33.33;;;16.52;;
76475;SDS011;65308;50.078;14.854;2023-02-15T12:36:31;35.78;;;17.48;;
76475;SDS011;65308;50.078;14.854;2023-02-15T12:39:19;37.28;;;17.73;;
76475;SDS011;65308;50.078;14.854;2023-02-15T12:42:01;36.17;;;17.13;;
76475;SDS011;65308;50.078;14.854;2023-02-15T12:44:30;38.72;;;18.35;;
76475;SDS011;65308;50.078;14.854;2023-02-15T12:46:59;37.58;;;17.50;;
76475;SDS011;65308;50.078;14.854;2023-02-15T12:49:30;35.97;;;16.50;;
76475;SDS011;65308;50.078;14.854;2023-02-15T12:51:58;42.05;;;18.10;;
76475;SDS011;65308;50.078;14.854;2023-02-15T12:54:30;39.35;;;17.77;;
76475;SDS011;65308;50.078;14.854;2023-02-15T12:57:21;39.40;;;17.63;;
76475;SDS011;65308;50.078;14.854;2023-02-15T12:59:51;43.35;;;19.25;;
76475;SDS011;65308;50.078;14.854;2023-02-15T13:02:21;39.10;;;19.23;;
76475;SDS011;65308;50.078;14.854;2023-02-15T13:04:52;42.35;;;21.17;;
76475;SDS011;65308;50.078;14.854;2023-02-15T13:07:21;39.08;;;18.60;;
76475;SDS011;65308;50.078;14.854;2023-02-15T13:09:49;36.85;;;18.85;;
76475;SDS011;65308;50.078;14.854;2023-02-15T13:12:18;37.45;;;17.50;;
76475;SDS011;65308;50.078;14.854;2023-02-15T13:14:48;38.85;;;17.63;;
76475;SDS011;65308;50.078;14.854;2023-02-15T13:17:18;36.72;;;17.33;;
76475;SDS011;65308;50.078;14.854;2023-02-15T13:19:56;40.10;;;16.92;;
76475;SDS011;65308;50.078;14.854;2023-02-15T13:22:27;39.40;;;18.77;;
76475;SDS011;65308;50.078;14.854;2023-02-15T13:25:01;39.15;;;19.13;;
76475;SDS011;65308;50.078;14.854;2023-02-15T13:27:35;40.72;;;18.60;;
76475;SDS011;65308;50.078;14.854;2023-02-15T13:30:08;40.78;;;18.58;;
76475;SDS011;65308;50.078;14.854;2023-02-15T13:32:45;41.50;;;20.73;;
76475;SDS011;65308;50.078;14.854;2023-02-15T13:35:16;41.08;;;18.00;;
76475;SDS011;65308;50.078;14.854;2023-02-15T13:37:49;40.78;;;18.10;;
76475;SDS011;65308;50.078;14.854;2023-02-15T13:40:29;41.22;;;18.13;;
76475;SDS011;65308;50.078;14.854;2023-02-15T13:43:00;40.50;;;17.60;;
76475;SDS011;65308;50.078;14.854;2023-02-15T13:45:37;41.25;;;18.02;;
76475;SDS011;65308;50.078;14.854;2023-02-15T13:48:19;36.85;;;16.67;;
76475;SDS011;65308;50.078;14.854;2023-02-15T13:50:55;39.63;;;18.35;;
76475;SDS011;65308;50.078;14.854;2023-02-15T13:53:42;39.97;;;17.30;;
76475;SDS011;65308;50.078;14.854;2023-02-15T13:56:22;38.92;;;18.17;;
76475;SDS011;65308;50.078;14.854;2023-02-15T13:58:58;40.78;;;18.35;;
76475;SDS011;65308;50.078;14.854;2023-02-15T14:01:37;39.08;;;17.38;;
76475;SDS011;65308;50.078;14.854;2023-02-15T14:04:17;41.42;;;18.50;;
76475;SDS011;65308;50.078;14.854;2023-02-15T14:07:16;39.35;;;17.20;;
76475;SDS011;65308;50.078;14.854;2023-02-15T14:09:56;37.00;;;17.27;;
76475;SDS011;65308;50.078;14.854;2023-02-15T14:12:35;39.00;;;17.52;;
76475;SDS011;65308;50.078;14.854;2023-02-15T14:15:15;35.88;;;17.08;;
76475;SDS011;65308;50.078;14.854;2023-02-15T14:17:55;37.72;;;16.80;;
76475;SDS011;65308;50.078;14.854;2023-02-15T14:20:36;38.33;;;16.42;;
76475;SDS011;65308;50.078;14.854;2023-02-15T14:23:14;37.63;;;16.88;;
76475;SDS011;65308;50.078;14.854;2023-02-15T14:25:53;41.35;;;18.10;;
76475;SDS011;65308;50.078;14.854;2023-02-15T14:28:26;39.35;;;17.08;;
76475;SDS011;65308;50.078;14.854;2023-02-15T14:30:57;36.20;;;16.65;;
76475;SDS011;65308;50.078;14.854;2023-02-15T14:33:28;38.13;;;18.02;;
76475;SDS011;65308;50.078;14.854;2023-02-15T14:35:58;40.65;;;17.38;;
76475;SDS011;65308;50.078;14.854;2023-02-15T14:38:29;42.75;;;20.48;;
76475;SDS011;65308;50.078;14.854;2023-02-15T14:41:12;37.78;;;17.38;;
76475;SDS011;65308;50.078;14.854;2023-02-15T14:43:46;45.25;;;19.40;;
76475;SDS011;65308;50.078;14.854;2023-02-15T14:46:23;39.05;;;17.55;;
76475;SDS011;65308;50.078;14.854;2023-02-15T14:49:15;38.65;;;18.60;;
76475;SDS011;65308;50.078;14.854;2023-02-15T14:51:58;41.92;;;18.85;;
76475;SDS011;65308;50.078;14.854;2023-02-15T14:57:38;44.55;;;18.17;;
76475;SDS011;65308;50.078;14.854;2023-02-15T15:06:24;43.58;;;17.92;;